createdAt,value
2022-12-14T00:00:20.627Z,96.52
2022-12-14T00:01:20.564Z,96.52
2022-12-14T00:02:20.460Z,96.62
2022-12-14T00:03:20.520Z,96.52
2022-12-14T00:04:20.322Z,96.52
2022-12-14T00:05:20.274Z,96.46
2022-12-14T00:06:20.225Z,96.46
2022-12-14T00:07:20.166Z,96.46
2022-12-14T00:08:20.054Z,96.46
2022-12-14T00:09:20.004Z,96.56
2022-12-14T00:10:19.999Z,96.46
2022-12-14T00:11:19.942Z,96.42
2022-12-14T00:12:19.773Z,96.35
2022-12-14T00:13:20.014Z,96.20
2022-12-14T00:14:19.662Z,96.20
2022-12-14T00:15:19.630Z,96.20
2022-12-14T00:16:19.578Z,96.20
2022-12-14T00:17:19.505Z,96.20
2022-12-14T00:18:22.632Z,96.20
2022-12-14T00:19:19.366Z,96.09
2022-12-14T00:20:19.283Z,96.09
2022-12-14T00:21:19.187Z,95.99
2022-12-14T00:22:19.177Z,95.99
2022-12-14T00:23:19.082Z,95.99
2022-12-14T00:24:19.020Z,95.99
2022-12-14T00:25:18.970Z,96.09
2022-12-14T00:26:18.887Z,96.20
2022-12-14T00:27:18.860Z,96.20
2022-12-14T00:28:18.784Z,96.20
2022-12-14T00:29:18.719Z,96.09
2022-12-14T00:30:18.659Z,96.09
2022-12-14T00:31:39.592Z,96.03
2022-12-14T00:32:18.524Z,95.93
2022-12-14T00:33:18.417Z,95.82
2022-12-14T00:34:18.371Z,95.82
2022-12-14T00:35:18.275Z,95.78
2022-12-14T00:36:18.215Z,95.82
2022-12-14T00:37:18.187Z,95.61
2022-12-14T00:38:18.113Z,95.61
2022-12-14T00:39:18.071Z,95.72
2022-12-14T00:40:17.955Z,95.82
2022-12-14T00:41:17.938Z,95.93
2022-12-14T00:42:17.821Z,95.93
2022-12-14T00:43:17.798Z,95.82
2022-12-14T00:44:17.721Z,95.72
2022-12-14T00:45:17.628Z,95.61
2022-12-14T00:46:17.596Z,95.72
2022-12-14T00:47:17.523Z,95.78
2022-12-14T00:48:17.465Z,95.67
2022-12-14T00:49:38.365Z,95.78
2022-12-14T00:50:17.336Z,95.78
2022-12-14T00:51:17.291Z,95.89
2022-12-14T00:52:17.202Z,95.99
2022-12-14T00:53:17.175Z,95.99
2022-12-14T00:54:17.052Z,95.99
2022-12-14T00:55:17.014Z,95.99
2022-12-14T00:56:16.967Z,95.89
2022-12-14T00:57:16.897Z,95.89
2022-12-14T00:58:16.808Z,95.99
2022-12-14T00:59:16.751Z,96.09
2022-12-14T01:00:16.658Z,96.09
2022-12-14T01:01:16.694Z,96.09
2022-12-14T01:02:16.636Z,96.09
2022-12-14T01:03:16.553Z,96.09
2022-12-14T01:04:16.524Z,95.99
2022-12-14T01:05:16.390Z,95.89
2022-12-14T01:06:16.275Z,95.78
2022-12-14T01:07:16.215Z,95.67
2022-12-14T01:08:16.156Z,95.57
2022-12-14T01:09:16.131Z,95.46
2022-12-14T01:10:16.069Z,95.36
2022-12-14T01:11:15.992Z,95.25
2022-12-14T01:12:15.904Z,95.14
2022-12-14T01:13:15.890Z,95.04
2022-12-14T01:14:15.787Z,95.04
2022-12-14T01:15:15.691Z,95.14
2022-12-14T01:16:15.720Z,95.14
2022-12-14T01:17:15.572Z,95.14
2022-12-14T01:18:15.541Z,95.14
2022-12-14T01:19:15.568Z,95.14
2022-12-14T01:20:15.370Z,95.14
2022-12-14T01:21:15.328Z,95.25
2022-12-14T01:22:15.243Z,95.25
2022-12-14T01:23:15.220Z,95.25
2022-12-14T01:24:15.147Z,95.46
2022-12-14T01:25:36.042Z,95.57
2022-12-14T01:26:15.002Z,95.57
2022-12-14T01:27:14.931Z,95.67
2022-12-14T01:28:14.871Z,95.57
2022-12-14T01:29:14.833Z,95.46
2022-12-14T01:30:14.708Z,95.36
2022-12-14T01:31:14.765Z,95.14
2022-12-14T01:32:14.603Z,95.14
2022-12-14T01:33:14.576Z,94.93
2022-12-14T01:34:14.487Z,94.61
2022-12-14T01:35:14.398Z,94.51
2022-12-14T01:36:14.367Z,94.40
2022-12-14T01:37:14.303Z,94.51
2022-12-14T01:38:14.242Z,94.46
2022-12-14T01:39:14.146Z,94.36
2022-12-14T01:40:14.093Z,94.25
2022-12-14T01:41:14.025Z,94.15
2022-12-14T01:42:13.975Z,94.04
2022-12-14T01:43:34.853Z,94.09
2022-12-14T01:44:13.842Z,94.04
2022-12-14T01:45:13.730Z,94.15
2022-12-14T01:46:13.783Z,94.04
2022-12-14T01:47:13.629Z,94.04
2022-12-14T01:48:13.538Z,94.15
2022-12-14T01:49:13.538Z,94.04
2022-12-14T01:50:13.437Z,94.04
2022-12-14T01:51:13.365Z,94.19
2022-12-14T01:52:13.313Z,94.29
2022-12-14T01:53:13.222Z,94.40
2022-12-14T01:54:13.187Z,94.51
2022-12-14T01:55:13.389Z,94.51
2022-12-14T01:56:13.016Z,94.51
2022-12-14T01:57:12.985Z,94.40
2022-12-14T01:58:12.949Z,94.36
2022-12-14T01:59:12.880Z,94.36
2022-12-14T02:00:12.810Z,94.25
2022-12-14T02:02:22.090Z,94.04
2022-12-14T02:03:22.986Z,94.19
2022-12-14T02:04:22.842Z,94.29
2022-12-14T02:05:22.770Z,94.51
2022-12-14T02:06:22.682Z,94.46
2022-12-14T02:07:22.668Z,94.25
2022-12-14T02:08:22.574Z,94.15
2022-12-14T02:09:22.515Z,94.25
2022-12-14T02:10:22.415Z,94.15
2022-12-14T02:11:22.328Z,94.09
2022-12-14T02:12:22.287Z,93.98
2022-12-14T02:13:22.220Z,93.87
2022-12-14T02:14:22.136Z,93.73
2022-12-14T02:15:22.066Z,93.83
2022-12-14T02:16:22.152Z,93.83
2022-12-14T02:17:21.963Z,93.77
2022-12-14T02:18:21.928Z,93.55
2022-12-14T02:20:31.033Z,93.44
2022-12-14T02:21:32.005Z,93.44
2022-12-14T02:22:31.927Z,93.44
2022-12-14T02:23:32.513Z,93.44
2022-12-14T02:24:31.780Z,93.44
2022-12-14T02:25:31.772Z,93.60
2022-12-14T02:26:31.678Z,93.77
2022-12-14T02:27:31.572Z,93.80
2022-12-14T02:28:31.565Z,93.80
2022-12-14T02:29:31.500Z,93.80
2022-12-14T02:30:31.409Z,93.80
2022-12-14T02:31:31.439Z,93.70
2022-12-14T02:32:31.285Z,93.70
2022-12-14T02:33:31.317Z,93.70
2022-12-14T02:34:31.152Z,93.70
2022-12-14T02:35:31.093Z,93.80
2022-12-14T02:36:30.998Z,93.70
2022-12-14T02:38:40.187Z,93.49
2022-12-14T02:39:41.123Z,93.38
2022-12-14T02:40:41.047Z,93.38
2022-12-14T02:41:40.987Z,93.60
2022-12-14T02:42:40.920Z,93.80
2022-12-14T02:43:40.868Z,93.80
2022-12-14T02:44:40.802Z,93.85
2022-12-14T02:45:40.726Z,93.91
2022-12-14T02:46:40.720Z,94.17
2022-12-14T02:47:40.584Z,94.23
2022-12-14T02:48:40.532Z,94.38
2022-12-14T02:49:40.480Z,94.38
2022-12-14T02:50:40.431Z,94.38
2022-12-14T02:51:40.314Z,94.17
2022-12-14T02:52:40.322Z,94.06
2022-12-14T02:53:40.263Z,93.96
2022-12-14T02:54:40.141Z,93.96
2022-12-14T02:55:40.106Z,94.17
2022-12-14T02:56:39.995Z,94.27
2022-12-14T02:57:39.954Z,94.38
2022-12-14T02:58:39.875Z,94.38
2022-12-14T02:59:39.787Z,94.59
2022-12-14T03:00:39.777Z,94.81
2022-12-14T03:01:39.931Z,95.02
2022-12-14T03:02:39.752Z,95.12
2022-12-14T03:03:39.552Z,95.12
2022-12-14T03:04:39.493Z,95.23
2022-12-14T03:05:39.452Z,95.12
2022-12-14T03:06:39.362Z,95.02
2022-12-14T03:07:39.346Z,95.02
2022-12-14T03:08:39.258Z,95.12
2022-12-14T03:09:39.174Z,95.12
2022-12-14T03:10:39.096Z,95.12
2022-12-14T03:11:39.014Z,95.12
2022-12-14T03:12:38.981Z,95.12
2022-12-14T03:13:38.942Z,95.12
2022-12-14T03:14:38.808Z,95.23
2022-12-14T03:15:38.772Z,95.34
2022-12-14T03:16:38.805Z,95.34
2022-12-14T03:17:38.674Z,95.34
2022-12-14T03:18:38.645Z,95.44
2022-12-14T03:20:03.481Z,95.34
2022-12-14T03:20:38.448Z,95.34
2022-12-14T03:21:38.414Z,95.44
2022-12-14T03:22:38.322Z,95.44
2022-12-14T03:23:38.253Z,95.54
2022-12-14T03:24:38.219Z,95.54
2022-12-14T03:25:38.435Z,95.65
2022-12-14T03:26:41.640Z,95.54
2022-12-14T03:27:38.013Z,95.44
2022-12-14T03:28:37.915Z,95.44
2022-12-14T03:29:37.873Z,95.34
2022-12-14T03:30:59.530Z,95.23
2022-12-14T03:31:58.820Z,95.12
2022-12-14T03:32:37.697Z,95.12
2022-12-14T03:33:37.580Z,94.91
2022-12-14T03:34:37.567Z,94.70
2022-12-14T03:35:37.489Z,94.70
2022-12-14T03:36:37.438Z,94.59
2022-12-14T03:37:37.340Z,94.49
2022-12-14T03:38:37.261Z,94.49
2022-12-14T03:39:37.226Z,94.49
2022-12-14T03:40:37.162Z,94.49
2022-12-14T03:41:37.102Z,94.49
2022-12-14T03:42:37.019Z,94.49
2022-12-14T03:43:36.973Z,94.59
2022-12-14T03:44:43.308Z,94.70
2022-12-14T03:45:36.841Z,94.59
2022-12-14T03:46:36.761Z,94.49
2022-12-14T03:47:36.699Z,94.38
2022-12-14T03:48:36.643Z,94.27
2022-12-14T03:50:45.828Z,94.59
2022-12-14T03:51:46.750Z,94.81
2022-12-14T03:52:46.709Z,94.91
2022-12-14T03:53:46.596Z,94.91
2022-12-14T03:54:46.548Z,94.91
2022-12-14T03:56:55.758Z,95.02
2022-12-14T03:57:56.699Z,94.91
2022-12-14T03:58:57.402Z,95.06
2022-12-14T03:59:56.530Z,95.02
2022-12-14T04:00:56.521Z,95.02
2022-12-14T04:01:56.661Z,95.02
2022-12-14T04:02:56.397Z,94.91
2022-12-14T04:03:56.281Z,94.81
2022-12-14T04:04:56.233Z,94.70
2022-12-14T04:05:56.161Z,94.59
2022-12-14T04:06:56.117Z,94.38
2022-12-14T04:08:17.052Z,94.38
2022-12-14T04:08:55.993Z,94.64
2022-12-14T04:09:55.913Z,94.59
2022-12-14T04:10:55.857Z,94.70
2022-12-14T04:11:55.762Z,94.70
2022-12-14T04:12:55.711Z,94.70
2022-12-14T04:13:55.676Z,94.70
2022-12-14T04:14:55.626Z,94.64
2022-12-14T04:15:55.526Z,94.59
2022-12-14T04:16:55.480Z,94.70
2022-12-14T04:17:55.385Z,94.70
2022-12-14T04:18:59.587Z,94.59
2022-12-14T04:19:55.296Z,94.49
2022-12-14T04:20:55.216Z,94.49
2022-12-14T04:21:55.135Z,94.49
2022-12-14T04:22:55.109Z,94.70
2022-12-14T04:23:55.036Z,94.70
2022-12-14T04:24:54.928Z,94.81
2022-12-14T04:27:04.097Z,94.91
2022-12-14T04:28:05.025Z,94.91
2022-12-14T04:29:04.962Z,94.91
2022-12-14T04:30:04.876Z,94.91
2022-12-14T04:31:04.861Z,95.02
2022-12-14T04:32:04.813Z,95.02
2022-12-14T04:33:04.699Z,95.02
2022-12-14T04:34:04.633Z,95.02
2022-12-14T04:35:04.606Z,95.02
2022-12-14T04:36:04.515Z,95.12
2022-12-14T04:37:04.437Z,95.23
2022-12-14T04:38:04.396Z,95.23
2022-12-14T04:39:04.370Z,95.12
2022-12-14T04:40:04.247Z,95.12
2022-12-14T04:41:04.180Z,95.12
2022-12-14T04:42:04.117Z,95.23
2022-12-14T04:43:04.112Z,95.23
2022-12-14T04:45:43.173Z,95.08
2022-12-14T04:46:43.969Z,95.08
2022-12-14T04:47:43.883Z,94.87
2022-12-14T04:48:43.808Z,94.76
2022-12-14T04:49:43.759Z,94.55
2022-12-14T04:50:43.666Z,94.45
2022-12-14T04:51:43.618Z,94.23
2022-12-14T04:52:43.580Z,94.13
2022-12-14T04:53:43.558Z,94.23
2022-12-14T04:54:43.469Z,94.34
2022-12-14T04:55:43.378Z,94.45
2022-12-14T04:56:43.355Z,94.55
2022-12-14T04:57:43.271Z,94.55
2022-12-14T04:58:43.160Z,94.55
2022-12-14T04:59:43.107Z,94.55
2022-12-14T05:00:43.038Z,94.55
2022-12-14T05:04:01.374Z,94.34
2022-12-14T05:05:02.865Z,94.13
2022-12-14T05:06:02.352Z,93.80
2022-12-14T05:07:02.179Z,93.70
2022-12-14T05:08:23.118Z,93.49
2022-12-14T05:09:02.138Z,93.28
2022-12-14T05:10:02.040Z,92.96
2022-12-14T05:11:22.110Z,92.85
2022-12-14T05:12:01.903Z,92.75
2022-12-14T05:13:01.797Z,92.54
2022-12-14T05:14:01.734Z,92.54
2022-12-14T05:15:01.690Z,92.32
2022-12-14T05:16:01.653Z,92.32
2022-12-14T05:17:07.940Z,92.54
2022-12-14T05:18:01.519Z,92.43
2022-12-14T05:19:01.465Z,92.43
2022-12-14T05:20:01.364Z,92.43
2022-12-14T05:22:40.320Z,92.75
2022-12-14T05:23:41.294Z,92.85
2022-12-14T05:24:41.218Z,92.85
2022-12-14T05:25:41.095Z,92.75
2022-12-14T05:26:41.089Z,92.54
2022-12-14T05:27:40.963Z,92.43
2022-12-14T05:28:44.661Z,92.54
2022-12-14T05:29:40.862Z,92.54
2022-12-14T05:30:40.870Z,92.32
2022-12-14T05:31:40.734Z,92.22
2022-12-14T05:32:40.686Z,92.11
2022-12-14T05:33:40.605Z,92.22
2022-12-14T05:34:40.536Z,92.54
2022-12-14T05:35:40.471Z,92.54
2022-12-14T05:36:40.380Z,92.32
2022-12-14T05:37:40.374Z,92.32
2022-12-14T05:38:40.279Z,92.43
2022-12-14T05:39:40.179Z,92.43
2022-12-14T05:40:40.143Z,92.43
2022-12-14T05:41:40.050Z,92.43
2022-12-14T05:42:44.770Z,92.54
2022-12-14T05:43:39.937Z,92.75
2022-12-14T05:44:39.912Z,92.96
2022-12-14T05:45:39.972Z,93.07
2022-12-14T05:46:39.727Z,93.07
2022-12-14T05:47:39.692Z,93.07
2022-12-14T05:48:39.696Z,93.07
2022-12-14T05:49:39.587Z,92.96
2022-12-14T05:50:39.531Z,92.96
2022-12-14T05:51:39.404Z,92.85
2022-12-14T05:52:39.632Z,92.64
2022-12-14T05:53:39.304Z,92.64
2022-12-14T05:54:39.263Z,92.75
2022-12-14T05:55:39.175Z,92.75
2022-12-14T05:57:00.119Z,92.75
2022-12-14T05:57:39.055Z,92.85
2022-12-14T05:58:38.955Z,92.85
2022-12-14T05:59:38.907Z,92.85
2022-12-14T06:00:38.818Z,92.85
2022-12-14T06:01:38.775Z,92.85
2022-12-14T06:02:38.753Z,92.85
2022-12-14T06:03:38.633Z,93.28
2022-12-14T06:04:38.660Z,93.28
2022-12-14T06:05:38.518Z,93.17
2022-12-14T06:06:38.480Z,92.96
2022-12-14T06:07:38.392Z,92.85
2022-12-14T06:09:47.599Z,92.85
2022-12-14T06:10:48.454Z,92.96
2022-12-14T06:11:48.419Z,92.96
2022-12-14T06:12:48.357Z,93.07
2022-12-14T06:13:48.323Z,92.96
2022-12-14T06:14:48.269Z,92.85
2022-12-14T06:15:48.195Z,92.75
2022-12-14T06:16:48.106Z,92.75
2022-12-14T06:17:48.023Z,92.75
2022-12-14T06:18:47.977Z,92.60
2022-12-14T06:19:50.398Z,92.29
2022-12-14T06:20:48.141Z,92.18
2022-12-14T06:21:47.757Z,92.07
2022-12-14T06:22:48.024Z,92.07
2022-12-14T06:23:47.657Z,92.29
2022-12-14T06:24:47.594Z,92.29
2022-12-14T06:25:47.502Z,92.39
2022-12-14T06:29:09.845Z,92.81
2022-12-14T06:30:06.783Z,92.71
2022-12-14T06:31:06.760Z,92.43
2022-12-14T06:32:06.652Z,92.32
2022-12-14T06:33:06.560Z,92.54
2022-12-14T06:34:06.537Z,92.49
2022-12-14T06:35:06.457Z,92.43
2022-12-14T06:36:06.379Z,92.39
2022-12-14T06:37:06.408Z,92.60
2022-12-14T06:38:06.276Z,92.92
2022-12-14T06:39:06.189Z,93.13
2022-12-14T06:40:06.098Z,93.13
2022-12-14T06:41:06.097Z,92.92
2022-12-14T06:42:06.027Z,92.81
2022-12-14T06:43:05.985Z,92.49
2022-12-14T06:44:05.925Z,92.60
2022-12-14T06:45:05.817Z,92.81
2022-12-14T06:46:09.849Z,92.71
2022-12-14T06:47:05.652Z,92.39
2022-12-14T06:48:05.661Z,92.39
2022-12-14T06:49:06.339Z,92.18
2022-12-14T06:50:05.453Z,92.07
2022-12-14T06:51:05.418Z,92.07
2022-12-14T06:52:27.200Z,92.18
2022-12-14T06:53:05.261Z,92.18
2022-12-14T06:54:05.199Z,92.29
2022-12-14T06:55:05.168Z,92.29
2022-12-14T06:56:05.037Z,92.18
2022-12-14T06:57:05.020Z,91.96
2022-12-14T06:58:04.990Z,91.86
2022-12-14T06:59:04.868Z,91.75
2022-12-14T07:00:04.803Z,91.75
2022-12-14T07:01:04.744Z,91.86
2022-12-14T07:02:04.725Z,91.54
2022-12-14T07:03:04.706Z,91.44
2022-12-14T07:04:04.591Z,91.64
2022-12-14T07:05:04.477Z,91.71
2022-12-14T07:06:04.384Z,91.61
2022-12-14T07:07:04.385Z,91.50
2022-12-14T07:08:04.279Z,91.39
2022-12-14T07:09:04.243Z,91.39
2022-12-14T07:11:13.359Z,91.39
2022-12-14T07:12:14.838Z,91.61
2022-12-14T07:13:14.178Z,91.82
2022-12-14T07:14:14.154Z,91.61
2022-12-14T07:15:14.129Z,91.50
2022-12-14T07:16:14.050Z,91.71
2022-12-14T07:17:13.940Z,91.93
2022-12-14T07:18:13.857Z,92.13
2022-12-14T07:19:13.843Z,92.35
2022-12-14T07:20:13.733Z,92.45
2022-12-14T07:21:13.666Z,92.35
2022-12-14T07:22:13.677Z,92.03
2022-12-14T07:23:13.544Z,91.71
2022-12-14T07:24:13.472Z,91.39
2022-12-14T07:25:13.426Z,91.29
2022-12-14T07:26:13.339Z,91.18
2022-12-14T07:27:13.260Z,91.08
2022-12-14T07:29:22.406Z,90.76
2022-12-14T07:30:23.416Z,90.86
2022-12-14T07:31:23.327Z,90.97
2022-12-14T07:32:23.192Z,91.08
2022-12-14T07:33:23.139Z,90.97
2022-12-14T07:34:23.074Z,90.86
2022-12-14T07:35:22.986Z,90.76
2022-12-14T07:36:22.951Z,90.76
2022-12-14T07:37:22.875Z,90.65
2022-12-14T07:38:22.819Z,90.65
2022-12-14T07:39:22.735Z,90.61
2022-12-14T07:40:22.686Z,90.61
2022-12-14T07:41:23.401Z,90.61
2022-12-14T07:42:22.539Z,90.61
2022-12-14T07:43:22.464Z,90.61
2022-12-14T07:44:22.405Z,90.50
2022-12-14T07:45:22.338Z,90.61
2022-12-14T07:46:22.382Z,90.72
2022-12-14T07:47:22.229Z,90.93
2022-12-14T07:48:22.815Z,91.14
2022-12-14T07:49:22.052Z,91.25
2022-12-14T07:50:22.052Z,91.35
2022-12-14T07:51:21.948Z,90.82
2022-12-14T07:52:21.948Z,90.61
2022-12-14T07:53:21.811Z,90.72
2022-12-14T07:54:21.784Z,90.72
2022-12-14T07:55:21.688Z,90.72
2022-12-14T07:56:21.592Z,90.72
2022-12-14T07:57:21.534Z,91.14
2022-12-14T07:58:21.480Z,91.35
2022-12-14T07:59:21.428Z,91.35
2022-12-14T08:00:21.370Z,91.25
2022-12-14T08:01:21.478Z,91.56
2022-12-14T08:02:21.320Z,91.67
2022-12-14T08:03:21.204Z,91.25
2022-12-14T08:04:42.088Z,90.82
2022-12-14T08:05:21.050Z,90.67
2022-12-14T08:06:20.956Z,90.78
2022-12-14T08:07:20.933Z,90.78
2022-12-14T08:08:20.810Z,90.67
2022-12-14T08:09:20.842Z,90.57
2022-12-14T08:10:20.768Z,90.47
2022-12-14T08:11:20.625Z,90.36
2022-12-14T08:12:20.550Z,90.57
2022-12-14T08:13:20.540Z,90.78
2022-12-14T08:14:20.509Z,90.78
2022-12-14T08:15:20.381Z,90.74
2022-12-14T08:16:20.383Z,90.64
2022-12-14T08:17:20.320Z,90.11
2022-12-14T08:18:20.196Z,89.89
2022-12-14T08:19:20.105Z,89.89
2022-12-14T08:20:20.056Z,89.47
2022-12-14T08:21:19.967Z,89.26
2022-12-14T08:22:20.327Z,89.58
2022-12-14T08:23:19.857Z,89.58
2022-12-14T08:24:19.849Z,89.47
2022-12-14T08:25:20.180Z,89.58
2022-12-14T08:26:20.377Z,89.47
2022-12-14T08:27:19.645Z,89.37
2022-12-14T08:28:19.587Z,89.22
2022-12-14T08:29:19.479Z,89.32
2022-12-14T08:30:19.394Z,89.43
2022-12-14T08:31:19.408Z,89.54
2022-12-14T08:32:20.486Z,89.54
2022-12-14T08:33:19.185Z,89.64
2022-12-14T08:34:20.102Z,89.75
2022-12-14T08:35:19.145Z,89.64
2022-12-14T08:36:19.883Z,89.32
2022-12-14T08:37:18.965Z,89.32
2022-12-14T08:38:18.898Z,89.43
2022-12-14T08:39:18.926Z,89.75
2022-12-14T08:40:18.828Z,89.54
2022-12-14T08:41:18.699Z,89.50
2022-12-14T08:42:18.641Z,89.29
2022-12-14T08:43:23.320Z,89.50
2022-12-14T08:44:18.554Z,89.61
2022-12-14T08:45:18.461Z,89.71
2022-12-14T08:46:18.381Z,89.39
2022-12-14T08:47:18.309Z,88.97
2022-12-14T08:48:18.242Z,88.65
2022-12-14T08:49:18.952Z,88.54
2022-12-14T08:50:18.253Z,88.54
2022-12-14T08:51:18.471Z,88.51
2022-12-14T08:52:18.035Z,88.71
2022-12-14T08:53:17.915Z,88.19
2022-12-14T08:54:18.891Z,87.98
2022-12-14T08:55:19.010Z,87.98
2022-12-14T08:56:17.751Z,87.87
2022-12-14T08:57:17.651Z,88.40
2022-12-14T08:58:18.162Z,88.61
2022-12-14T08:59:37.081Z,88.51
2022-12-14T09:00:17.656Z,88.71
2022-12-14T09:01:17.635Z,89.14
2022-12-14T09:02:17.471Z,89.35
2022-12-14T09:03:17.366Z,89.35
2022-12-14T09:04:18.001Z,89.14
2022-12-14T09:05:17.507Z,89.03
2022-12-14T09:06:17.868Z,88.89
2022-12-14T09:07:17.072Z,88.57
2022-12-14T09:08:16.987Z,88.19
2022-12-14T09:09:17.860Z,87.98
2022-12-14T09:10:17.703Z,87.62
2022-12-14T09:11:17.319Z,87.84
2022-12-14T09:12:16.870Z,88.15
2022-12-14T09:13:17.350Z,88.26
2022-12-14T09:14:16.616Z,88.26
2022-12-14T09:15:17.208Z,88.36
2022-12-14T09:16:16.485Z,88.46
2022-12-14T09:17:16.386Z,88.68
2022-12-14T09:18:16.324Z,88.57
2022-12-14T09:19:16.282Z,88.36
2022-12-14T09:20:16.190Z,88.36
2022-12-14T09:21:16.110Z,88.43
2022-12-14T09:22:16.144Z,88.43
2022-12-14T09:23:16.015Z,88.21
2022-12-14T09:24:15.935Z,88.11
2022-12-14T09:25:15.874Z,88.01
2022-12-14T09:26:15.775Z,87.44
2022-12-14T09:27:15.750Z,87.23
2022-12-14T09:28:15.676Z,86.80
2022-12-14T09:29:15.598Z,87.23
2022-12-14T09:30:15.497Z,87.44
2022-12-14T09:31:15.552Z,87.02
2022-12-14T09:32:15.399Z,86.77
2022-12-14T09:33:15.327Z,86.77
2022-12-14T09:34:36.301Z,86.87
2022-12-14T09:35:15.172Z,86.66
2022-12-14T09:36:15.166Z,85.92
2022-12-14T09:37:15.072Z,85.82
2022-12-14T09:38:15.057Z,85.92
2022-12-14T09:39:14.974Z,85.92
2022-12-14T09:40:14.899Z,85.92
2022-12-14T09:41:14.817Z,85.61
2022-12-14T09:42:14.738Z,85.39
2022-12-14T09:43:14.708Z,85.46
2022-12-14T09:44:18.448Z,84.45
2022-12-14T09:45:14.572Z,84.34
2022-12-14T09:46:14.547Z,84.02
2022-12-14T09:47:14.425Z,84.45
2022-12-14T09:48:14.537Z,84.62
2022-12-14T09:49:14.293Z,85.04
2022-12-14T09:50:14.318Z,84.62
2022-12-14T09:51:14.188Z,84.62
2022-12-14T09:52:14.135Z,84.72
2022-12-14T09:53:14.044Z,84.72
2022-12-14T09:54:14.004Z,85.04
2022-12-14T09:55:13.908Z,85.57
2022-12-14T09:56:13.813Z,85.46
2022-12-14T09:57:13.790Z,85.36
2022-12-14T09:58:13.763Z,85.04
2022-12-14T09:59:13.655Z,85.53
2022-12-14T10:00:13.606Z,85.42
2022-12-14T10:01:13.631Z,85.31
2022-12-14T10:02:30.507Z,85.31
2022-12-14T10:03:13.606Z,84.89
2022-12-14T10:04:13.437Z,84.37
2022-12-14T10:05:13.255Z,83.95
2022-12-14T10:06:13.237Z,83.95
2022-12-14T10:07:13.115Z,84.05
2022-12-14T10:08:13.123Z,83.31
2022-12-14T10:09:12.978Z,83.42
2022-12-14T10:10:33.932Z,83.73
2022-12-14T10:11:12.912Z,83.81
2022-12-14T10:12:12.786Z,83.49
2022-12-14T10:13:12.767Z,83.07
2022-12-14T10:14:12.773Z,82.12
2022-12-14T10:15:12.613Z,82.01
2022-12-14T10:16:13.191Z,81.81
2022-12-14T10:17:12.633Z,81.59
2022-12-14T10:18:33.890Z,81.17
2022-12-14T10:19:12.482Z,81.59
2022-12-14T10:20:12.322Z,81.91
2022-12-14T10:21:12.222Z,82.01
2022-12-14T10:22:12.181Z,82.43
2022-12-14T10:23:12.084Z,82.65
2022-12-14T10:24:15.326Z,82.75
2022-12-14T10:25:12.835Z,82.23
2022-12-14T10:26:14.836Z,82.75
2022-12-14T10:27:11.921Z,82.82
2022-12-14T10:28:33.661Z,83.66
2022-12-14T10:29:11.705Z,83.03
2022-12-14T10:30:11.669Z,81.98
2022-12-14T10:31:11.623Z,82.40
2022-12-14T10:32:13.390Z,83.56
2022-12-14T10:33:13.757Z,84.08
2022-12-14T10:34:15.775Z,84.50
2022-12-14T10:35:12.543Z,83.98
2022-12-14T10:36:13.554Z,83.98
2022-12-14T10:37:11.162Z,83.98
2022-12-14T10:38:11.126Z,84.08
2022-12-14T10:39:11.409Z,83.87
2022-12-14T10:40:16.379Z,83.76
2022-12-14T10:41:10.970Z,83.56
2022-12-14T10:42:10.844Z,83.56
2022-12-14T10:43:10.833Z,83.76
2022-12-14T10:44:10.737Z,83.98
2022-12-14T10:45:39.005Z,83.56
2022-12-14T10:46:14.310Z,83.45
2022-12-14T10:47:10.541Z,82.92
2022-12-14T10:48:10.505Z,83.03
2022-12-14T10:49:10.442Z,83.56
2022-12-14T10:50:10.378Z,82.61
2022-12-14T10:51:10.322Z,82.08
2022-12-14T10:52:10.293Z,82.15
2022-12-14T10:53:10.226Z,82.46
2022-12-14T10:54:10.091Z,82.89
2022-12-14T10:55:10.056Z,83.10
2022-12-14T10:56:10.060Z,82.99
2022-12-14T10:57:09.877Z,82.15
2022-12-14T10:58:09.874Z,81.62
2022-12-14T10:59:09.796Z,81.62
2022-12-14T11:00:10.401Z,81.20
2022-12-14T11:01:09.835Z,81.06
2022-12-14T11:02:09.845Z,82.01
2022-12-14T11:03:09.571Z,81.90
2022-12-14T11:04:30.401Z,82.53
2022-12-14T11:05:09.400Z,82.11
2022-12-14T11:06:09.371Z,81.59
2022-12-14T11:07:09.281Z,81.38
2022-12-14T11:08:09.184Z,81.27
2022-12-14T11:09:09.100Z,81.16
2022-12-14T11:10:09.122Z,80.85
2022-12-14T11:11:11.662Z,80.54
2022-12-14T11:12:09.063Z,80.54
2022-12-14T11:13:08.854Z,80.85
2022-12-14T11:14:08.829Z,80.54
2022-12-14T11:15:08.753Z,80.43
2022-12-14T11:16:08.814Z,80.54
2022-12-14T11:17:08.752Z,80.43
2022-12-14T11:18:08.659Z,80.75
2022-12-14T11:19:12.821Z,80.18
2022-12-14T11:24:50.599Z,78.71
2022-12-14T11:25:30.565Z,78.82
2022-12-14T11:26:30.499Z,79.13
2022-12-14T11:27:30.465Z,80.71
2022-12-14T11:28:36.606Z,81.83
2022-12-14T11:29:30.336Z,82.14
2022-12-14T11:30:30.331Z,81.93
2022-12-14T11:31:30.210Z,82.14
2022-12-14T11:32:30.111Z,81.51
2022-12-14T11:33:30.053Z,81.93
2022-12-14T11:34:29.986Z,82.67
2022-12-14T11:35:29.929Z,82.35
2022-12-14T11:36:29.913Z,81.83
2022-12-14T11:37:29.802Z,82.32
2022-12-14T11:38:30.174Z,82.42
2022-12-14T11:39:29.687Z,82.42
2022-12-14T11:40:29.592Z,82.32
2022-12-14T11:41:29.532Z,81.79
2022-12-14T11:42:29.516Z,81.69
2022-12-14T11:43:29.373Z,81.79
2022-12-14T11:44:29.350Z,81.79
2022-12-14T11:45:29.282Z,82.32
2022-12-14T11:46:29.238Z,82.84
2022-12-14T11:47:29.130Z,83.05
2022-12-14T11:48:29.594Z,83.58
2022-12-14T11:49:29.054Z,83.37
2022-12-14T11:50:28.949Z,82.95
2022-12-14T11:51:28.874Z,81.48
2022-12-14T11:52:28.882Z,81.65
2022-12-14T11:53:28.759Z,82.28
2022-12-14T11:54:28.698Z,82.07
2022-12-14T11:55:28.605Z,82.07
2022-12-14T11:56:28.592Z,82.07
2022-12-14T11:57:28.505Z,82.39
2022-12-14T11:58:28.773Z,82.70
2022-12-14T11:59:28.370Z,82.28
2022-12-14T12:00:49.280Z,82.07
2022-12-14T12:01:28.336Z,81.76
2022-12-14T12:02:28.177Z,82.07
2022-12-14T12:03:28.299Z,82.21
2022-12-14T12:04:28.018Z,82.32
2022-12-14T12:05:27.964Z,81.90
2022-12-14T12:06:27.969Z,81.79
2022-12-14T12:07:27.892Z,82.00
2022-12-14T12:08:28.236Z,82.21
2022-12-14T12:09:28.627Z,82.74
2022-12-14T12:10:27.633Z,82.32
2022-12-14T12:11:27.630Z,82.63
2022-12-14T12:12:27.614Z,82.56
2022-12-14T12:13:27.450Z,82.25
2022-12-14T12:14:27.426Z,82.46
2022-12-14T12:15:27.438Z,83.09
2022-12-14T12:16:27.302Z,83.09
2022-12-14T12:17:27.185Z,82.56
2022-12-14T12:18:27.692Z,82.35
2022-12-14T12:19:27.082Z,82.04
2022-12-14T12:20:27.025Z,81.83
2022-12-14T12:21:26.973Z,81.62
2022-12-14T12:22:26.883Z,81.51
2022-12-14T12:23:27.204Z,81.30
2022-12-14T12:24:26.842Z,81.30
2022-12-14T12:25:30.835Z,81.09
2022-12-14T12:26:26.687Z,81.20
2022-12-14T12:27:26.594Z,81.30
2022-12-14T12:28:26.828Z,81.30
2022-12-14T12:29:26.435Z,81.20
2022-12-14T12:30:26.414Z,81.41
2022-12-14T12:31:26.363Z,81.73
2022-12-14T12:32:26.219Z,81.09
2022-12-14T12:33:26.186Z,80.99
2022-12-14T12:34:26.115Z,80.32
2022-12-14T12:35:26.051Z,81.05
2022-12-14T12:36:26.050Z,80.22
2022-12-14T12:37:27.440Z,80.11
2022-12-14T12:38:26.133Z,80.22
2022-12-14T12:39:25.816Z,80.32
2022-12-14T12:40:25.710Z,80.22
2022-12-14T12:41:25.754Z,80.53
2022-12-14T12:42:25.615Z,80.64
2022-12-14T12:43:25.605Z,80.64
2022-12-14T12:44:25.466Z,80.22
2022-12-14T12:45:25.382Z,80.53
2022-12-14T12:46:25.348Z,80.43
2022-12-14T12:47:30.242Z,80.39
2022-12-14T12:48:25.231Z,79.86
2022-12-14T12:49:25.152Z,79.66
2022-12-14T12:50:25.058Z,79.86
2022-12-14T12:51:25.044Z,80.08
2022-12-14T12:52:24.957Z,80.39
2022-12-14T12:53:24.891Z,79.97
2022-12-14T12:54:45.824Z,79.76
2022-12-14T12:55:24.730Z,79.97
2022-12-14T12:56:24.738Z,80.08
2022-12-14T12:57:24.608Z,80.39
2022-12-14T12:58:24.560Z,80.60
2022-12-14T12:59:24.513Z,80.71
2022-12-14T13:00:24.454Z,80.85
2022-12-14T13:01:24.561Z,80.64
2022-12-14T13:02:24.560Z,80.74
2022-12-14T13:03:24.310Z,80.64
2022-12-14T13:04:24.174Z,81.02
2022-12-14T13:06:24.107Z,81.02
2022-12-14T13:07:24.018Z,81.12
2022-12-14T13:08:23.928Z,81.02
2022-12-14T13:09:23.832Z,81.23
2022-12-14T13:10:23.792Z,81.12
2022-12-14T13:11:26.476Z,81.12
2022-12-14T13:12:23.689Z,81.23
2022-12-14T13:13:23.600Z,81.02
2022-12-14T13:14:23.564Z,80.60
2022-12-14T13:15:23.453Z,79.76